createdAt,value
2022-12-06T00:02:14.046Z,3.00
2022-12-06T00:04:41.068Z,2.60
2022-12-06T00:07:07.955Z,2.55
2022-12-06T00:09:35.074Z,2.08
2022-12-06T00:12:01.889Z,2.05
2022-12-06T00:14:28.862Z,2.90
2022-12-06T00:16:56.405Z,3.25
2022-12-06T00:19:24.321Z,3.03
2022-12-06T00:21:51.764Z,2.80
2022-12-06T00:24:21.134Z,3.85
2022-12-06T00:26:49.676Z,3.20
2022-12-06T00:29:20.382Z,3.55
2022-12-06T00:31:47.895Z,3.58
2022-12-06T00:34:14.897Z,3.20
2022-12-06T00:36:43.075Z,3.55
2022-12-06T00:39:15.453Z,2.80
2022-12-06T00:41:43.212Z,3.28
2022-12-06T00:44:10.776Z,3.13
2022-12-06T00:46:38.369Z,2.75
2022-12-06T00:49:06.733Z,2.40
2022-12-06T00:51:34.832Z,2.10
2022-12-06T00:54:02.385Z,2.05
2022-12-06T00:56:29.285Z,2.30
2022-12-06T00:58:56.242Z,2.20
2022-12-06T01:01:26.075Z,1.90
2022-12-06T01:03:56.408Z,1.90
2022-12-06T01:06:28.084Z,2.15
2022-12-06T01:09:00.716Z,2.00
2022-12-06T01:11:28.573Z,1.63
2022-12-06T01:13:55.743Z,1.48
2022-12-06T01:16:28.817Z,1.33
2022-12-06T01:18:59.321Z,1.60
2022-12-06T01:21:27.506Z,1.20
2022-12-06T01:23:54.492Z,1.70
2022-12-06T01:26:30.553Z,1.77
2022-12-06T01:28:59.047Z,1.67
2022-12-06T01:31:27.237Z,1.60
2022-12-06T01:33:56.313Z,1.67
2022-12-06T01:36:25.180Z,1.83
2022-12-06T01:38:57.416Z,2.15
2022-12-06T01:41:26.273Z,2.17
2022-12-06T01:43:56.367Z,1.95
2022-12-06T01:46:39.956Z,1.63
2022-12-06T01:49:12.601Z,1.52
2022-12-06T01:51:51.156Z,1.70
2022-12-06T01:54:20.730Z,1.50
2022-12-06T01:56:48.827Z,1.27
2022-12-06T01:59:16.482Z,1.80
2022-12-06T02:01:43.544Z,1.67
2022-12-06T02:04:10.502Z,1.80
2022-12-06T02:06:38.953Z,1.60
2022-12-06T02:09:08.944Z,1.48
2022-12-06T02:11:36.035Z,1.60
2022-12-06T02:14:10.525Z,1.65
2022-12-06T02:16:49.131Z,2.00
2022-12-06T02:19:33.241Z,1.60
2022-12-06T02:22:18.080Z,1.65
2022-12-06T02:25:18.784Z,1.63
2022-12-06T02:27:48.208Z,1.83
2022-12-06T02:30:32.554Z,1.98
2022-12-06T02:33:06.477Z,1.87
2022-12-06T02:35:44.120Z,1.95
2022-12-06T02:38:44.240Z,1.90
2022-12-06T02:41:20.520Z,1.75
2022-12-06T02:43:57.040Z,1.90
2022-12-06T02:46:29.795Z,2.00
2022-12-06T02:49:00.421Z,1.90
2022-12-06T02:51:29.340Z,1.95
2022-12-06T02:53:58.810Z,1.95
2022-12-06T02:56:26.308Z,1.70
2022-12-06T02:58:53.402Z,1.70
2022-12-06T03:01:42.991Z,1.60
2022-12-06T03:04:34.939Z,1.60
2022-12-06T03:07:36.329Z,1.40
2022-12-06T03:10:40.347Z,1.50
2022-12-06T03:13:15.952Z,1.80
2022-12-06T03:15:42.680Z,1.60
2022-12-06T03:18:15.408Z,1.88
2022-12-06T03:20:52.151Z,1.90
2022-12-06T03:23:25.970Z,1.95
2022-12-06T03:25:58.681Z,1.80
2022-12-06T03:28:27.286Z,1.77
2022-12-06T03:30:59.936Z,2.22
2022-12-06T03:33:29.844Z,1.73
2022-12-06T03:35:58.367Z,1.65
2022-12-06T03:38:35.511Z,2.27
2022-12-06T03:41:06.146Z,1.70
2022-12-06T03:43:34.031Z,2.10
2022-12-06T03:46:13.867Z,2.10
2022-12-06T03:48:49.048Z,2.65
2022-12-06T03:51:20.838Z,2.20
2022-12-06T03:53:50.724Z,2.42
2022-12-06T03:56:18.033Z,2.17
2022-12-06T03:58:45.706Z,2.15
2022-12-06T04:01:13.913Z,2.30
2022-12-06T04:03:40.692Z,2.10
2022-12-06T04:06:08.723Z,1.80
2022-12-06T04:08:35.985Z,1.90
2022-12-06T04:11:02.708Z,1.60
2022-12-06T04:13:31.242Z,2.10
2022-12-06T04:16:00.173Z,2.00
2022-12-06T04:18:27.417Z,2.08
2022-12-06T04:21:17.856Z,2.20
2022-12-06T04:23:50.803Z,2.47
2022-12-06T04:26:20.992Z,2.30
2022-12-06T04:29:06.884Z,2.00
2022-12-06T04:31:52.322Z,1.88
2022-12-06T04:34:37.904Z,1.95
2022-12-06T04:37:23.317Z,1.83
2022-12-06T04:39:50.313Z,2.33
2022-12-06T04:42:36.073Z,2.20
2022-12-06T04:45:03.743Z,2.50
2022-12-06T04:47:30.569Z,2.85
2022-12-06T04:49:57.440Z,2.60
2022-12-06T04:52:24.244Z,1.90
2022-12-06T04:54:53.284Z,2.07
2022-12-06T04:57:20.089Z,1.80
2022-12-06T04:59:46.822Z,1.55
2022-12-06T05:02:15.700Z,2.15
2022-12-06T05:04:42.638Z,1.65
2022-12-06T05:07:11.430Z,2.17
2022-12-06T05:09:38.695Z,2.10
2022-12-06T05:12:08.439Z,1.65
2022-12-06T05:14:35.173Z,1.70
2022-12-06T05:17:01.812Z,1.40
2022-12-06T05:19:28.929Z,1.40
2022-12-06T05:21:55.559Z,1.40
2022-12-06T05:24:22.265Z,1.52
2022-12-06T05:26:48.930Z,1.63
2022-12-06T05:29:15.644Z,2.30
2022-12-06T05:31:42.498Z,3.37
2022-12-06T05:34:10.133Z,3.25
2022-12-06T05:36:36.769Z,1.88
2022-12-06T05:39:04.205Z,2.35
2022-12-06T05:41:30.999Z,8.25
2022-12-06T05:43:57.687Z,10.77
2022-12-06T05:46:24.395Z,6.97
2022-12-06T05:48:51.084Z,6.90
2022-12-06T05:51:17.707Z,5.88
2022-12-06T05:53:44.353Z,4.93
2022-12-06T05:56:12.592Z,5.90
2022-12-06T05:58:40.052Z,4.75
2022-12-06T06:01:07.847Z,4.65
2022-12-06T06:03:34.847Z,3.75
2022-12-06T06:06:02.144Z,3.00
2022-12-06T06:08:29.998Z,2.93
2022-12-06T06:10:57.821Z,2.45
2022-12-06T06:13:24.604Z,3.03
2022-12-06T06:15:51.577Z,2.10
2022-12-06T06:18:19.276Z,2.42
2022-12-06T06:20:54.636Z,2.00
2022-12-06T06:23:21.714Z,3.85
2022-12-06T06:25:48.988Z,3.83
2022-12-06T06:28:16.403Z,3.80
2022-12-06T06:30:43.699Z,3.38
2022-12-06T06:33:11.193Z,6.10
2022-12-06T06:35:39.329Z,4.93
2022-12-06T06:38:06.554Z,4.28
2022-12-06T06:40:34.105Z,4.22
2022-12-06T06:43:18.572Z,4.90
2022-12-06T06:45:58.032Z,6.43
2022-12-06T06:48:26.310Z,6.75
2022-12-06T06:50:57.364Z,6.47
2022-12-06T06:53:27.608Z,6.63
2022-12-06T06:55:55.446Z,6.50
2022-12-06T06:58:22.665Z,6.23
2022-12-06T07:00:54.333Z,6.43
2022-12-06T07:03:21.746Z,6.25
2022-12-06T07:06:09.340Z,12.40
2022-12-06T07:08:37.219Z,13.20
2022-12-06T07:11:04.431Z,5.07
2022-12-06T07:13:32.162Z,4.50
2022-12-06T07:15:59.123Z,5.15
2022-12-06T07:18:26.427Z,8.05
2022-12-06T07:21:01.811Z,9.25
2022-12-06T07:23:28.485Z,8.93
2022-12-06T07:26:04.308Z,9.23
2022-12-06T07:28:31.034Z,9.18
2022-12-06T07:30:57.960Z,9.20
2022-12-06T07:33:24.655Z,9.02
2022-12-06T07:38:40.243Z,7.85
2022-12-06T07:41:28.489Z,12.50
2022-12-06T07:44:14.876Z,7.03
2022-12-06T07:46:42.640Z,5.65
2022-12-06T07:49:10.106Z,7.47
2022-12-06T07:51:37.597Z,8.70
2022-12-06T07:54:04.416Z,8.15
2022-12-06T07:56:31.128Z,8.07
2022-12-06T07:58:57.809Z,10.55
2022-12-06T08:01:24.665Z,11.30
2022-12-06T08:03:51.416Z,12.07
2022-12-06T08:06:18.197Z,12.75
2022-12-06T08:08:44.816Z,17.63
2022-12-06T08:11:11.486Z,18.10
2022-12-06T08:13:38.427Z,16.13
2022-12-06T08:16:07.026Z,14.20
2022-12-06T08:18:33.804Z,5.88
2022-12-06T08:21:01.285Z,4.85
2022-12-06T08:23:33.650Z,4.82
2022-12-06T08:26:06.038Z,5.60
2022-12-06T08:28:34.560Z,4.78
2022-12-06T08:31:06.767Z,31.70
2022-12-06T08:33:34.243Z,17.45
2022-12-06T08:36:00.990Z,13.68
2022-12-06T08:38:28.489Z,14.47
2022-12-06T08:40:55.124Z,13.45
2022-12-06T08:43:21.783Z,12.70
2022-12-06T08:45:52.638Z,12.13
2022-12-06T08:48:19.537Z,10.50
2022-12-06T08:50:46.205Z,10.17
2022-12-06T08:53:12.915Z,10.40
2022-12-06T08:55:41.529Z,10.00
2022-12-06T08:58:08.482Z,9.35
2022-12-06T09:00:35.166Z,9.40
2022-12-06T09:03:01.973Z,8.80
2022-12-06T09:05:28.661Z,8.93
2022-12-06T09:07:55.411Z,9.05
2022-12-06T09:10:22.145Z,7.93
2022-12-06T09:12:48.789Z,10.02
2022-12-06T09:15:15.513Z,8.43
2022-12-06T09:17:42.136Z,9.30
2022-12-06T09:20:09.403Z,10.05
2022-12-06T09:22:36.400Z,11.68
2022-12-06T09:25:03.351Z,14.98
2022-12-06T09:27:30.512Z,10.10
2022-12-06T09:29:57.325Z,11.35
2022-12-06T09:32:24.146Z,12.30
2022-12-06T09:34:51.565Z,13.00
2022-12-06T09:37:18.583Z,12.98
2022-12-06T09:39:51.105Z,12.83
2022-12-06T09:42:26.635Z,12.77
2022-12-06T09:45:30.814Z,14.73
2022-12-06T09:48:08.665Z,14.27
2022-12-06T09:51:00.127Z,16.25
2022-12-06T09:54:17.496Z,16.07
2022-12-06T09:57:07.341Z,11.02
2022-12-06T10:00:07.445Z,8.95
2022-12-06T10:03:04.610Z,8.48
2022-12-06T10:05:54.359Z,8.43
2022-12-06T10:08:29.779Z,10.67
2022-12-06T10:11:26.473Z,10.23
2022-12-06T10:14:32.129Z,12.40
2022-12-06T10:17:18.375Z,12.38
2022-12-06T10:20:04.707Z,10.88
2022-12-06T10:22:53.256Z,9.67
2022-12-06T10:25:31.573Z,9.75
2022-12-06T10:28:45.031Z,10.40
2022-12-06T10:31:24.838Z,10.88
2022-12-06T10:33:57.378Z,11.10
2022-12-06T10:36:38.837Z,12.80
2022-12-06T10:39:22.838Z,15.80
2022-12-06T10:42:31.346Z,15.93
2022-12-06T10:45:34.308Z,16.90
2022-12-06T10:48:05.159Z,14.75
2022-12-06T10:50:35.914Z,15.13
2022-12-06T10:53:19.959Z,13.82
2022-12-06T10:55:53.226Z,13.43
2022-12-06T10:58:35.875Z,14.27
2022-12-06T11:01:12.393Z,13.73
2022-12-06T11:03:44.640Z,13.67
2022-12-06T11:06:26.895Z,15.15
2022-12-06T11:08:58.187Z,28.35
2022-12-06T11:11:31.453Z,28.90
2022-12-06T11:14:06.925Z,27.75
2022-12-06T11:16:39.819Z,24.23
2022-12-06T11:19:23.243Z,21.48
2022-12-06T11:22:00.570Z,13.80
2022-12-06T11:24:46.152Z,15.63
2022-12-06T11:27:21.713Z,17.60
2022-12-06T11:29:50.305Z,14.23
2022-12-06T11:32:18.238Z,14.07
2022-12-06T11:34:51.798Z,13.60
2022-12-06T11:37:21.404Z,15.05
2022-12-06T11:39:53.838Z,12.52
2022-12-06T11:42:26.937Z,14.03
2022-12-06T11:44:57.279Z,16.25
2022-12-06T11:47:24.654Z,14.30
2022-12-06T11:49:54.280Z,13.60
2022-12-06T11:52:40.917Z,11.85
2022-12-06T11:55:15.945Z,10.37
2022-12-06T11:57:51.767Z,9.85
2022-12-06T12:00:21.930Z,11.68
2022-12-06T12:02:51.126Z,10.10
2022-12-06T12:05:22.144Z,10.43
2022-12-06T12:07:55.323Z,10.77
2022-12-06T12:10:38.919Z,9.50
2022-12-06T12:13:30.241Z,10.75
2022-12-06T12:16:44.791Z,9.73
2022-12-06T12:19:39.117Z,9.65
2022-12-06T12:22:21.174Z,8.90
2022-12-06T12:25:17.759Z,8.98
2022-12-06T12:27:41.085Z,8.57
2022-12-06T12:30:29.648Z,8.60
2022-12-06T12:33:05.474Z,8.30
2022-12-06T12:35:35.204Z,8.67
2022-12-06T12:38:18.220Z,8.38
2022-12-06T12:40:58.429Z,8.25
2022-12-06T12:43:34.344Z,13.75
2022-12-06T12:46:28.955Z,14.40
2022-12-06T12:49:23.253Z,13.50
2022-12-06T12:51:50.513Z,12.30
2022-12-06T12:54:19.980Z,10.98
2022-12-06T12:56:46.634Z,11.23
2022-12-06T12:59:16.362Z,10.68
2022-12-06T13:02:23.079Z,9.77
2022-12-06T13:05:24.869Z,9.18
2022-12-06T13:07:52.434Z,9.52
2022-12-06T13:10:22.704Z,9.60
2022-12-06T13:12:54.196Z,9.73
2022-12-06T13:15:37.842Z,10.53
2022-12-06T13:18:13.135Z,30.02
2022-12-06T13:20:40.893Z,19.95
2022-12-06T13:23:19.784Z,11.90
2022-12-06T13:26:03.492Z,16.90
2022-12-06T13:28:37.774Z,12.37
2022-12-06T13:31:11.905Z,14.50
2022-12-06T13:33:45.601Z,13.93
2022-12-06T13:36:15.021Z,7.45
2022-12-06T13:38:43.081Z,7.28
2022-12-06T13:41:15.165Z,4.83
2022-12-06T13:43:44.536Z,9.00
2022-12-06T13:46:14.192Z,8.90
2022-12-06T13:48:57.954Z,5.15
2022-12-06T13:51:30.670Z,5.05
2022-12-06T13:54:06.330Z,3.10
2022-12-06T13:56:33.037Z,1.90
2022-12-06T13:59:02.105Z,1.65
2022-12-06T14:01:40.783Z,1.73
2022-12-06T14:06:56.421Z,2.27
2022-12-06T14:09:26.090Z,2.13
2022-12-06T14:11:54.544Z,4.15
2022-12-06T14:14:24.108Z,3.00
2022-12-06T14:16:53.494Z,2.42
2022-12-06T14:19:32.305Z,2.77
2022-12-06T14:22:00.539Z,2.17
2022-12-06T14:24:34.336Z,1.80
2022-12-06T14:27:05.849Z,2.00
2022-12-06T14:29:33.103Z,1.70
2022-12-06T14:32:00.072Z,1.13
2022-12-06T14:34:29.314Z,0.90
2022-12-06T14:36:57.581Z,1.23
2022-12-06T14:39:27.796Z,1.17
2022-12-06T14:42:16.108Z,1.60
2022-12-06T14:44:58.837Z,8.27
2022-12-06T14:47:29.850Z,5.70
2022-12-06T14:50:19.221Z,2.63
2022-12-06T14:53:03.792Z,2.30
2022-12-06T14:55:33.586Z,3.35
2022-12-06T14:58:03.709Z,3.30
2022-12-06T15:00:47.346Z,4.20
2022-12-06T15:03:14.002Z,8.15
2022-12-06T15:05:49.943Z,9.13
2022-12-06T15:08:28.502Z,8.40
2022-12-06T15:11:37.903Z,7.63
2022-12-06T15:14:22.321Z,8.73
2022-12-06T15:17:19.398Z,9.90
2022-12-06T15:19:50.929Z,9.27
2022-12-06T15:22:24.933Z,8.55
2022-12-06T15:24:55.491Z,8.87
2022-12-06T15:27:23.488Z,9.82
2022-12-06T15:29:50.302Z,12.13
2022-12-06T15:32:18.748Z,10.93
2022-12-06T15:34:45.601Z,11.88
2022-12-06T15:37:38.316Z,15.83
2022-12-06T15:40:02.113Z,17.70
2022-12-06T15:42:29.552Z,15.73
2022-12-06T15:44:56.167Z,16.52
2022-12-06T15:47:23.125Z,17.40
2022-12-06T15:49:52.328Z,17.53
2022-12-06T15:52:23.247Z,20.65
2022-12-06T15:54:50.469Z,16.55
2022-12-06T15:57:17.142Z,16.25
2022-12-06T15:59:43.813Z,15.85
2022-12-06T16:02:18.353Z,16.93
2022-12-06T16:04:48.300Z,15.32
2022-12-06T16:07:19.277Z,16.95
2022-12-06T16:09:47.205Z,16.85
2022-12-06T16:12:13.768Z,17.85
2022-12-06T16:14:40.410Z,18.33
2022-12-06T16:17:07.418Z,19.58
2022-12-06T16:19:52.966Z,21.08
2022-12-06T16:22:39.789Z,21.17
2022-12-06T16:25:06.840Z,20.85
2022-12-06T16:27:33.487Z,20.70
2022-12-06T16:30:00.227Z,18.55
2022-12-06T16:32:27.062Z,19.42
2022-12-06T16:34:54.148Z,19.75
2022-12-06T16:37:20.769Z,14.82
2022-12-06T16:39:47.462Z,16.43
2022-12-06T16:42:14.185Z,16.15
2022-12-06T16:44:50.982Z,16.90
2022-12-06T16:47:18.274Z,18.92
2022-12-06T16:49:46.716Z,13.63
2022-12-06T16:52:14.906Z,19.67
2022-12-06T16:54:42.202Z,21.52
2022-12-06T16:57:11.371Z,21.17
2022-12-06T16:59:39.305Z,19.60
2022-12-06T17:02:28.501Z,16.25
2022-12-06T17:04:56.615Z,22.80
2022-12-06T17:07:23.377Z,19.50
2022-12-06T17:09:50.121Z,12.38
2022-12-06T17:12:17.017Z,9.70
2022-12-06T17:14:44.055Z,8.23
2022-12-06T17:17:15.786Z,7.57
2022-12-06T17:19:44.436Z,6.88
2022-12-06T17:22:12.128Z,7.18
2022-12-06T17:24:39.013Z,14.60
2022-12-06T17:27:07.002Z,15.75
2022-12-06T17:29:34.279Z,16.70
2022-12-06T17:32:01.404Z,15.20
2022-12-06T17:34:28.230Z,17.27
2022-12-06T17:36:56.040Z,17.70
2022-12-06T17:39:22.977Z,17.63
2022-12-06T17:42:08.385Z,18.77
2022-12-06T17:44:40.851Z,24.17
2022-12-06T17:47:07.632Z,19.15
2022-12-06T17:49:36.097Z,22.02
2022-12-06T17:52:03.159Z,8.40
2022-12-06T17:54:29.998Z,9.73
2022-12-06T17:56:57.045Z,6.55
2022-12-06T17:59:26.530Z,5.80
2022-12-06T18:04:41.485Z,4.57
2022-12-06T18:07:08.148Z,2.57
2022-12-06T18:09:34.816Z,3.22
2022-12-06T18:12:02.045Z,2.25
2022-12-06T18:14:29.304Z,2.20
2022-12-06T18:16:56.262Z,2.63
2022-12-06T18:19:23.909Z,2.33
2022-12-06T18:21:53.021Z,2.40
2022-12-06T18:24:23.250Z,2.45
2022-12-06T18:26:52.452Z,2.50
2022-12-06T18:29:21.928Z,4.72
2022-12-06T18:31:50.015Z,3.40
2022-12-06T18:34:17.378Z,2.20
2022-12-06T18:36:48.241Z,2.60
2022-12-06T18:39:17.188Z,2.60
2022-12-06T18:41:44.985Z,3.50
2022-12-06T18:44:12.807Z,3.60
2022-12-06T18:46:42.308Z,2.80
2022-12-06T18:49:11.871Z,3.30
2022-12-06T18:51:40.218Z,3.25
2022-12-06T18:54:08.262Z,4.75
2022-12-06T18:56:36.124Z,5.47
2022-12-06T18:59:07.096Z,6.05
2022-12-06T19:01:37.133Z,5.32
2022-12-06T19:04:06.428Z,5.82
2022-12-06T19:06:35.832Z,5.70
2022-12-06T19:09:06.782Z,5.30
2022-12-06T19:11:36.924Z,5.20
2022-12-06T19:14:04.607Z,4.88
2022-12-06T19:16:43.938Z,5.10
2022-12-06T19:19:16.784Z,3.20
2022-12-06T19:21:46.636Z,2.70
2022-12-06T19:24:20.228Z,2.83
2022-12-06T19:26:47.442Z,2.30
2022-12-06T19:29:15.517Z,1.70
2022-12-06T19:31:43.177Z,2.10
2022-12-06T19:34:35.966Z,2.00
2022-12-06T19:37:02.974Z,1.98
2022-12-06T19:39:29.810Z,4.05
2022-12-06T19:42:15.311Z,3.97
2022-12-06T19:44:42.343Z,2.25
2022-12-06T19:47:09.106Z,2.03
2022-12-06T19:49:38.995Z,2.40
2022-12-06T19:52:05.975Z,2.40
2022-12-06T19:54:33.759Z,2.60
2022-12-06T19:57:01.329Z,2.33
2022-12-06T19:59:34.669Z,2.30
2022-12-06T20:02:02.994Z,2.40
2022-12-06T20:04:33.456Z,2.35
2022-12-06T20:07:00.544Z,2.42
2022-12-06T20:09:29.164Z,4.13
2022-12-06T20:15:33.631Z,2.28
2022-12-06T20:18:00.906Z,10.02
2022-12-06T20:20:29.518Z,4.68
2022-12-06T20:22:56.375Z,5.80
2022-12-06T20:25:23.203Z,6.73
2022-12-06T20:27:53.286Z,4.82
2022-12-06T20:30:23.756Z,5.38
2022-12-06T20:32:50.722Z,5.68
2022-12-06T20:35:17.585Z,5.75
2022-12-06T20:37:44.357Z,6.37
2022-12-06T20:40:11.728Z,5.28
2022-12-06T20:42:38.568Z,2.40
2022-12-06T20:45:05.514Z,2.35
2022-12-06T20:47:32.230Z,2.70
2022-12-06T20:49:59.351Z,1.90
2022-12-06T20:52:26.421Z,1.70
2022-12-06T20:54:53.111Z,1.60
2022-12-06T20:57:20.032Z,1.25
2022-12-06T20:59:46.791Z,1.15
2022-12-06T21:02:13.568Z,1.27
2022-12-06T21:04:40.534Z,1.20
2022-12-06T21:07:07.272Z,3.35
2022-12-06T21:09:33.944Z,4.97
2022-12-06T21:12:00.649Z,2.35
2022-12-06T21:14:27.275Z,10.23
2022-12-06T21:16:53.906Z,12.60
2022-12-06T21:19:20.570Z,4.68
2022-12-06T21:21:53.609Z,1.20
2022-12-06T21:24:24.324Z,2.17
2022-12-06T21:26:51.174Z,1.80
2022-12-06T21:29:30.076Z,2.50
2022-12-06T21:31:59.834Z,3.08
2022-12-06T21:34:26.449Z,2.20
2022-12-06T21:36:53.466Z,3.67
2022-12-06T21:39:20.114Z,2.63
2022-12-06T21:41:46.817Z,3.45
2022-12-06T21:44:13.456Z,4.00
2022-12-06T21:46:40.158Z,2.58
2022-12-06T21:49:06.877Z,2.83
2022-12-06T21:51:33.748Z,2.10
2022-12-06T21:54:00.523Z,2.40
2022-12-06T21:56:30.416Z,1.33
2022-12-06T21:58:59.943Z,1.50
2022-12-06T22:01:29.048Z,1.70
2022-12-06T22:03:58.112Z,0.90
2022-12-06T22:06:25.524Z,1.40
2022-12-06T22:09:00.889Z,1.20
2022-12-06T22:11:28.826Z,1.30
2022-12-06T22:13:58.360Z,1.70
2022-12-06T22:16:25.566Z,0.83
2022-12-06T22:18:55.001Z,1.00
2022-12-06T22:21:24.896Z,1.10
2022-12-06T22:23:53.919Z,1.00
2022-12-06T22:26:22.520Z,1.60
2022-12-06T22:28:49.528Z,1.50
2022-12-06T22:31:24.336Z,1.10
2022-12-06T22:33:52.301Z,1.67
2022-12-06T22:36:20.740Z,1.27
2022-12-06T22:38:52.436Z,2.90
2022-12-06T22:41:19.968Z,3.20
2022-12-06T22:43:50.393Z,2.35
2022-12-06T22:46:17.246Z,2.42
2022-12-06T22:48:44.287Z,2.00
2022-12-06T22:51:25.742Z,1.70
2022-12-06T22:53:57.385Z,0.90
2022-12-06T22:56:25.302Z,1.10
2022-12-06T22:58:56.579Z,1.50
2022-12-06T23:01:25.846Z,1.40
2022-12-06T23:03:53.794Z,1.10
2022-12-06T23:06:23.662Z,1.50
2022-12-06T23:08:50.869Z,2.47
2022-12-06T23:11:26.060Z,5.90
2022-12-06T23:13:53.694Z,8.43
2022-12-06T23:16:22.991Z,3.35
2022-12-06T23:18:50.275Z,2.40
2022-12-06T23:21:20.225Z,2.42
2022-12-06T23:23:50.786Z,1.48
2022-12-06T23:26:21.066Z,0.80
2022-12-06T23:28:48.470Z,0.90
2022-12-06T23:31:18.721Z,0.80
2022-12-06T23:33:46.621Z,0.80
2022-12-06T23:36:19.580Z,0.90
2022-12-06T23:38:46.544Z,1.20
2022-12-06T23:41:16.574Z,1.50
2022-12-06T23:43:43.460Z,1.40
2022-12-06T23:46:12.429Z,0.90
2022-12-06T23:48:39.512Z,1.10
2022-12-06T23:51:08.950Z,1.25
2022-12-06T23:53:36.161Z,1.02
2022-12-06T23:56:11.521Z,1.10
2022-12-06T23:58:38.891Z,0.95
